createdAt,value
2022-12-27T00:01:20.801Z,4.41
2022-12-27T00:03:54.251Z,4.43
2022-12-27T00:06:28.295Z,4.41
2022-12-27T00:09:01.139Z,4.43
2022-12-27T00:11:34.134Z,4.42
2022-12-27T00:14:08.000Z,4.25
2022-12-27T00:16:41.580Z,4.37
2022-12-27T00:19:14.627Z,4.32
2022-12-27T00:21:47.339Z,4.34
2022-12-27T00:24:20.053Z,4.34
2022-12-27T00:26:53.228Z,4.33
2022-12-27T00:29:26.949Z,4.32
2022-12-27T00:31:59.816Z,4.35
2022-12-27T00:34:32.445Z,4.35
2022-12-27T00:37:05.064Z,4.39
2022-12-27T00:39:38.276Z,4.42
2022-12-27T00:42:10.816Z,4.44
2022-12-27T00:44:43.858Z,4.44
2022-12-27T00:47:16.570Z,4.42
2022-12-27T00:49:49.756Z,4.40
2022-12-27T00:52:22.702Z,4.35
2022-12-27T00:54:55.535Z,4.31
2022-12-27T00:57:28.525Z,4.28
2022-12-27T01:00:06.169Z,4.11
2022-12-27T01:02:43.775Z,4.21
2022-12-27T01:05:16.385Z,4.17
2022-12-27T01:07:49.367Z,4.16
2022-12-27T01:10:22.373Z,4.16
2022-12-27T01:12:55.074Z,4.15
2022-12-27T01:15:27.824Z,4.14
2022-12-27T01:18:00.703Z,4.17
2022-12-27T01:20:33.324Z,4.20
2022-12-27T01:23:06.269Z,4.23
2022-12-27T01:25:39.108Z,4.23
2022-12-27T01:28:12.205Z,4.25
2022-12-27T01:30:44.941Z,4.25
2022-12-27T01:33:17.783Z,4.21
2022-12-27T01:35:50.247Z,4.19
2022-12-27T01:38:23.009Z,4.15
2022-12-27T01:40:55.758Z,4.02
2022-12-27T01:43:47.583Z,4.08
2022-12-27T01:46:20.868Z,4.07
2022-12-27T01:48:53.879Z,3.96
2022-12-27T01:51:27.123Z,4.12
2022-12-27T01:54:00.146Z,4.15
2022-12-27T01:56:34.411Z,4.18
2022-12-27T01:59:11.783Z,4.21
2022-12-27T02:01:51.064Z,4.18
2022-12-27T02:04:28.246Z,4.30
2022-12-27T02:07:02.913Z,4.27
2022-12-27T02:09:59.233Z,4.25
2022-12-27T02:12:32.201Z,4.26
2022-12-27T02:15:05.675Z,4.28
2022-12-27T02:17:39.082Z,4.25
2022-12-27T02:20:19.667Z,4.14
2022-12-27T02:23:20.371Z,4.10
2022-12-27T02:26:05.047Z,4.10
2022-12-27T02:29:06.795Z,4.07
2022-12-27T02:31:44.051Z,3.96
2022-12-27T02:34:34.234Z,4.00
2022-12-27T02:37:12.665Z,4.01
2022-12-27T02:39:50.061Z,4.01
2022-12-27T02:42:41.712Z,4.00
2022-12-27T02:45:42.351Z,4.01
2022-12-27T02:48:35.899Z,4.01
2022-12-27T02:52:02.047Z,4.11
2022-12-27T02:54:48.121Z,4.11
2022-12-27T02:57:53.463Z,4.10
2022-12-27T03:00:46.631Z,4.05
2022-12-27T03:03:44.674Z,4.01
2022-12-27T03:06:36.027Z,3.97
2022-12-27T03:10:11.058Z,3.95
2022-12-27T03:13:11.878Z,3.91
2022-12-27T03:16:14.283Z,3.88
2022-12-27T03:19:02.743Z,3.88
2022-12-27T03:22:01.835Z,3.84
2022-12-27T03:24:58.563Z,3.94
2022-12-27T03:27:38.319Z,3.96
2022-12-27T03:30:32.880Z,4.02
2022-12-27T03:33:15.538Z,4.07
2022-12-27T03:36:19.139Z,4.13
2022-12-27T03:39:15.104Z,4.16
2022-12-27T03:42:18.843Z,4.07
2022-12-27T03:44:52.177Z,4.12
2022-12-27T03:47:50.069Z,4.16
2022-12-27T03:50:51.317Z,4.09
2022-12-27T03:53:40.523Z,4.05
2022-12-27T03:56:13.677Z,3.88
2022-12-27T03:58:46.918Z,3.87
2022-12-27T04:01:20.016Z,3.73
2022-12-27T04:03:52.877Z,3.75
2022-12-27T04:06:25.839Z,3.68
2022-12-27T04:09:16.927Z,3.66
2022-12-27T04:12:08.179Z,3.70
2022-12-27T04:14:59.136Z,3.68
2022-12-27T04:17:50.502Z,3.67
2022-12-27T04:20:41.413Z,3.70
2022-12-27T04:23:32.914Z,3.70
2022-12-27T04:26:23.828Z,3.64
2022-12-27T04:29:15.230Z,3.58
2022-12-27T04:32:05.999Z,3.57
2022-12-27T04:34:44.232Z,3.54
2022-12-27T04:37:20.492Z,3.51
2022-12-27T04:40:12.258Z,3.47
2022-12-27T04:43:04.344Z,3.45
2022-12-27T04:45:56.217Z,3.44
2022-12-27T04:48:50.123Z,3.31
2022-12-27T04:51:41.047Z,3.32
2022-12-27T04:54:43.195Z,3.30
2022-12-27T04:57:16.169Z,3.43
2022-12-27T05:00:08.463Z,3.46
2022-12-27T05:02:42.405Z,3.56
2022-12-27T05:05:16.062Z,3.54
2022-12-27T05:08:07.730Z,3.53
2022-12-27T05:10:59.442Z,3.64
2022-12-27T05:13:50.933Z,3.71
2022-12-27T05:16:23.716Z,3.67
2022-12-27T05:18:57.762Z,3.65
2022-12-27T05:21:30.569Z,3.67
2022-12-27T05:24:22.479Z,3.64
2022-12-27T05:26:58.658Z,3.62
2022-12-27T05:29:36.616Z,3.60
2022-12-27T05:32:13.084Z,3.53
2022-12-27T05:34:49.006Z,3.52
2022-12-27T05:37:21.668Z,3.51
2022-12-27T05:39:54.431Z,3.51
2022-12-27T05:42:27.063Z,3.48
2022-12-27T05:44:59.879Z,3.59
2022-12-27T05:47:32.904Z,3.65
2022-12-27T05:50:05.824Z,3.72
2022-12-27T05:52:41.153Z,3.81
2022-12-27T05:55:14.873Z,3.92
2022-12-27T05:57:47.900Z,3.92
2022-12-27T06:00:20.693Z,3.98
2022-12-27T06:02:53.297Z,4.04
2022-12-27T06:05:26.269Z,4.12
2022-12-27T06:07:59.247Z,4.12
2022-12-27T06:10:32.203Z,4.12
2022-12-27T06:13:06.025Z,4.13
2022-12-27T06:15:40.121Z,4.15
2022-12-27T06:18:13.201Z,4.10
2022-12-27T06:20:46.424Z,4.13
2022-12-27T06:23:19.220Z,4.15
2022-12-27T06:25:51.881Z,4.26
2022-12-27T06:28:24.635Z,4.21
2022-12-27T06:31:00.110Z,4.39
2022-12-27T06:33:33.776Z,4.39
2022-12-27T06:36:16.575Z,4.38
2022-12-27T06:38:50.601Z,4.47
2022-12-27T06:41:23.682Z,4.52
2022-12-27T06:44:00.231Z,4.48
2022-12-27T06:46:32.953Z,4.47
2022-12-27T06:49:05.955Z,4.51
2022-12-27T06:51:38.985Z,4.50
2022-12-27T06:54:11.749Z,4.59
2022-12-27T06:56:44.651Z,4.60
2022-12-27T06:59:18.044Z,4.54
2022-12-27T07:01:54.378Z,4.62
2022-12-27T07:04:27.392Z,4.68
2022-12-27T07:07:00.755Z,4.71
2022-12-27T07:09:34.233Z,4.74
2022-12-27T07:12:07.633Z,4.73
2022-12-27T07:14:41.059Z,4.80
2022-12-27T07:17:14.106Z,4.87
2022-12-27T07:19:48.606Z,4.92
2022-12-27T07:22:21.539Z,5.01
2022-12-27T07:24:55.183Z,5.10
2022-12-27T07:27:28.303Z,5.20
2022-12-27T07:30:01.384Z,5.28
2022-12-27T07:32:34.644Z,5.34
2022-12-27T07:35:07.590Z,5.30
2022-12-27T07:37:42.616Z,5.37
2022-12-27T07:40:15.313Z,5.41
2022-12-27T07:42:48.761Z,5.48
2022-12-27T07:45:21.672Z,5.51
2022-12-27T07:47:54.599Z,5.53
2022-12-27T07:50:27.485Z,5.53
2022-12-27T07:53:00.197Z,5.61
2022-12-27T07:55:33.338Z,5.59
2022-12-27T07:58:06.549Z,5.55
2022-12-27T08:00:39.452Z,5.58
2022-12-27T08:03:12.211Z,5.62
2022-12-27T08:05:54.215Z,5.69
2022-12-27T08:08:29.906Z,5.73
2022-12-27T08:11:05.646Z,5.67
2022-12-27T08:13:39.441Z,5.65
2022-12-27T08:16:24.962Z,5.71
2022-12-27T08:19:01.924Z,5.76
2022-12-27T08:21:39.269Z,5.79
2022-12-27T08:24:12.778Z,5.74
2022-12-27T08:26:45.908Z,5.87
2022-12-27T08:29:19.101Z,5.93
2022-12-27T08:31:52.378Z,6.11
2022-12-27T08:34:25.326Z,6.17
2022-12-27T08:36:58.252Z,6.23
2022-12-27T08:39:31.076Z,6.30
2022-12-27T08:42:03.977Z,6.32
2022-12-27T08:44:37.295Z,6.37
2022-12-27T08:47:10.690Z,6.27
2022-12-27T08:49:43.465Z,6.36
2022-12-27T08:52:16.223Z,6.40
2022-12-27T08:54:49.277Z,6.43
2022-12-27T08:57:22.242Z,6.41
2022-12-27T08:59:55.193Z,6.45
2022-12-27T09:02:28.122Z,6.44
2022-12-27T09:05:01.532Z,6.28
2022-12-27T09:07:35.129Z,6.39
2022-12-27T09:10:08.724Z,6.40
2022-12-27T09:12:41.789Z,6.42
2022-12-27T09:15:14.660Z,6.45
2022-12-27T09:17:47.561Z,6.51
2022-12-27T09:20:20.486Z,6.52
2022-12-27T09:22:53.705Z,6.57
2022-12-27T09:25:26.701Z,6.60
2022-12-27T09:28:00.444Z,6.60
2022-12-27T09:30:33.786Z,6.59
2022-12-27T09:33:06.806Z,6.63
2022-12-27T09:35:40.239Z,6.67
2022-12-27T09:38:13.375Z,6.85
2022-12-27T09:41:37.643Z,6.77
2022-12-27T09:44:32.355Z,6.75
2022-12-27T09:47:24.621Z,6.76
2022-12-27T09:50:01.419Z,6.83
2022-12-27T09:53:02.795Z,6.79
2022-12-27T09:55:55.102Z,6.86
2022-12-27T09:58:37.116Z,6.99
2022-12-27T10:01:34.524Z,7.06
2022-12-27T10:04:12.445Z,7.20
2022-12-27T10:07:07.160Z,7.37
2022-12-27T10:09:56.720Z,7.45
2022-12-27T10:12:40.884Z,7.68
2022-12-27T10:15:37.852Z,7.78
2022-12-27T10:18:31.673Z,7.84
2022-12-27T10:21:18.419Z,7.83
2022-12-27T10:24:19.222Z,7.83
2022-12-27T10:26:54.047Z,7.84
2022-12-27T10:29:28.788Z,7.87
2022-12-27T10:32:01.655Z,7.82
2022-12-27T10:34:34.906Z,7.61
2022-12-27T10:37:09.023Z,7.71
2022-12-27T10:39:42.191Z,7.70
2022-12-27T10:42:32.344Z,7.76
2022-12-27T10:45:28.723Z,7.85
2022-12-27T10:48:25.100Z,7.91
2022-12-27T10:51:13.213Z,7.97
2022-12-27T10:53:51.406Z,7.93
2022-12-27T10:56:32.331Z,8.11
2022-12-27T10:59:17.111Z,8.17
2022-12-27T11:02:11.312Z,8.22
2022-12-27T11:05:00.708Z,8.23
2022-12-27T11:07:37.448Z,8.24
2022-12-27T11:10:23.550Z,8.28
2022-12-27T11:13:08.491Z,8.26
2022-12-27T11:15:45.448Z,8.26
2022-12-27T11:18:22.154Z,8.31
2022-12-27T11:20:59.613Z,8.27
2022-12-27T11:23:44.720Z,8.11
2022-12-27T11:26:31.679Z,8.07
2022-12-27T11:29:06.209Z,7.88
2022-12-27T11:31:48.802Z,7.73
2022-12-27T11:34:25.632Z,7.63
2022-12-27T11:37:11.481Z,7.57
2022-12-27T11:39:54.253Z,7.54
2022-12-27T11:42:43.261Z,7.53
2022-12-27T11:45:23.576Z,7.50
2022-12-27T11:48:16.406Z,7.59
2022-12-27T11:51:07.350Z,7.63
2022-12-27T11:53:58.521Z,7.81
2022-12-27T11:56:34.096Z,7.97
2022-12-27T11:59:36.278Z,8.09
2022-12-27T12:02:33.909Z,8.20
2022-12-27T12:05:40.746Z,8.27
2022-12-27T12:08:34.741Z,8.32
2022-12-27T12:11:20.522Z,8.33
2022-12-27T12:14:26.285Z,8.37
2022-12-27T12:17:18.913Z,8.43
2022-12-27T12:20:20.673Z,8.43
2022-12-27T12:23:19.352Z,8.35
2022-12-27T12:26:15.467Z,8.24
2022-12-27T12:29:19.615Z,8.41
2022-12-27T12:32:17.343Z,8.57
2022-12-27T12:35:04.866Z,8.71
2022-12-27T12:38:04.209Z,8.77
2022-12-27T12:40:49.980Z,8.81
2022-12-27T12:44:00.112Z,8.81
2022-12-27T12:47:02.489Z,8.73
2022-12-27T12:50:13.579Z,8.64
2022-12-27T12:53:03.487Z,8.59
2022-12-27T12:55:58.343Z,8.52
2022-12-27T12:58:33.978Z,8.55
2022-12-27T13:01:45.153Z,8.59
2022-12-27T13:05:15.454Z,8.57
2022-12-27T13:08:03.654Z,8.58
2022-12-27T13:10:59.139Z,8.44
2022-12-27T13:13:53.317Z,8.40
2022-12-27T13:17:07.267Z,8.13
2022-12-27T13:20:00.351Z,8.02
2022-12-27T13:22:50.212Z,7.81
2022-12-27T13:25:33.569Z,7.74
2022-12-27T13:28:31.580Z,7.64
2022-12-27T13:31:29.289Z,7.54
2022-12-27T13:34:16.397Z,7.44
2022-12-27T13:37:02.960Z,7.36
2022-12-27T13:39:40.208Z,7.21
2022-12-27T13:42:38.478Z,7.13
2022-12-27T13:45:52.635Z,7.16
2022-12-27T13:48:52.292Z,7.11
2022-12-27T13:51:45.707Z,7.06
2022-12-27T13:54:24.183Z,7.02
2022-12-27T13:57:24.016Z,6.99
2022-12-27T14:00:17.832Z,6.96
2022-12-27T14:03:30.778Z,6.87
2022-12-27T14:06:43.128Z,6.85
2022-12-27T14:09:50.483Z,6.91
2022-12-27T14:12:40.783Z,6.84
2022-12-27T14:15:19.248Z,6.81
2022-12-27T14:18:29.209Z,6.88
2022-12-27T14:21:23.602Z,6.80
2022-12-27T14:24:06.872Z,6.62
2022-12-27T14:27:12.179Z,6.66
2022-12-27T14:30:02.557Z,6.86
2022-12-27T14:33:02.105Z,6.92
2022-12-27T14:36:14.300Z,6.81
2022-12-27T14:38:49.793Z,6.65
2022-12-27T14:41:38.699Z,6.60
2022-12-27T14:44:41.182Z,6.49
2022-12-27T14:47:28.421Z,6.45
2022-12-27T14:50:21.798Z,6.39
2022-12-27T14:53:23.896Z,6.42
2022-12-27T14:56:18.173Z,6.46
2022-12-27T14:59:08.752Z,6.47
2022-12-27T15:01:53.156Z,6.53
2022-12-27T15:04:47.380Z,6.57
2022-12-27T15:07:25.648Z,6.64
2022-12-27T15:10:27.206Z,6.70
2022-12-27T15:13:37.206Z,6.78
2022-12-27T15:16:27.018Z,6.87
2022-12-27T15:19:17.084Z,6.86
2022-12-27T15:22:07.065Z,6.80
2022-12-27T15:24:58.243Z,6.89
2022-12-27T15:27:45.019Z,6.90
2022-12-27T15:30:23.493Z,7.00
2022-12-27T15:33:24.095Z,6.95
2022-12-27T15:35:58.950Z,6.87
2022-12-27T15:38:55.026Z,6.81
2022-12-27T15:41:48.048Z,6.77
2022-12-27T15:44:25.703Z,6.84
2022-12-27T15:47:37.055Z,6.79
2022-12-27T15:50:27.260Z,6.81
2022-12-27T15:53:21.208Z,6.73
2022-12-27T15:56:20.183Z,6.79
2022-12-27T15:59:28.391Z,6.91
2022-12-27T16:02:36.724Z,6.79
2022-12-27T16:05:23.499Z,6.91
2022-12-27T16:08:02.523Z,6.88
2022-12-27T16:10:35.991Z,6.73
2022-12-27T16:13:14.266Z,6.84
2022-12-27T16:15:50.043Z,6.98
2022-12-27T16:18:25.288Z,7.08
2022-12-27T16:21:19.478Z,7.05
2022-12-27T16:24:01.149Z,7.10
2022-12-27T16:26:38.730Z,7.10
2022-12-27T16:29:18.460Z,7.07
2022-12-27T16:31:53.101Z,6.94
2022-12-27T16:34:34.332Z,6.84
2022-12-27T16:37:07.643Z,6.92
2022-12-27T16:39:56.076Z,6.92
2022-12-27T16:42:56.667Z,6.82
2022-12-27T16:45:40.926Z,6.67
2022-12-27T16:48:27.213Z,6.46
2022-12-27T16:51:05.550Z,6.39
2022-12-27T16:53:58.864Z,6.27
2022-12-27T16:56:34.960Z,6.02
2022-12-27T16:59:45.159Z,5.85
2022-12-27T17:02:35.706Z,5.91
2022-12-27T17:05:17.865Z,5.84
2022-12-27T17:07:56.329Z,5.92
2022-12-27T17:10:35.991Z,5.97
2022-12-27T17:13:31.962Z,5.98
2022-12-27T17:16:22.013Z,5.94
2022-12-27T17:19:02.430Z,5.95
2022-12-27T17:21:40.399Z,5.98
2022-12-27T17:24:24.355Z,6.05
2022-12-27T17:27:17.609Z,5.92
2022-12-27T17:30:09.375Z,5.85
2022-12-27T17:32:47.776Z,5.79
2022-12-27T17:35:38.652Z,5.66
2022-12-27T17:38:30.905Z,5.67
2022-12-27T17:41:41.746Z,5.66
2022-12-27T17:44:41.547Z,5.65
2022-12-27T17:47:19.681Z,5.33
2022-12-27T17:49:54.988Z,5.15
2022-12-27T17:52:47.023Z,5.18
2022-12-27T17:55:41.823Z,5.26
2022-12-27T17:58:17.321Z,5.25
2022-12-27T18:01:00.071Z,5.22
2022-12-27T18:03:44.737Z,5.25
2022-12-27T18:06:21.664Z,5.23
2022-12-27T18:08:55.263Z,4.98
2022-12-27T18:11:37.848Z,5.01
2022-12-27T18:14:17.448Z,4.92
2022-12-27T18:16:51.076Z,4.82
2022-12-27T18:19:23.987Z,4.83
2022-12-27T18:21:59.044Z,4.63
2022-12-27T18:24:36.357Z,4.52
2022-12-27T18:27:19.762Z,4.61
2022-12-27T18:29:53.679Z,4.66
2022-12-27T18:32:28.522Z,4.65
2022-12-27T18:35:05.234Z,4.77
2022-12-27T18:37:41.128Z,4.86
2022-12-27T18:40:23.617Z,4.95
2022-12-27T18:42:57.813Z,5.01
2022-12-27T18:45:33.800Z,5.02
2022-12-27T18:48:16.019Z,5.22
2022-12-27T18:50:55.312Z,5.31
2022-12-27T18:53:40.752Z,5.35
2022-12-27T18:56:19.566Z,5.43
2022-12-27T18:59:26.746Z,5.49
2022-12-27T19:02:05.090Z,5.45
2022-12-27T19:04:38.267Z,5.51
2022-12-27T19:07:14.599Z,5.53
2022-12-27T19:09:56.130Z,5.68
2022-12-27T19:12:35.142Z,5.73
2022-12-27T19:15:41.240Z,5.72
2022-12-27T19:18:29.605Z,5.76
2022-12-27T19:21:04.412Z,5.76
2022-12-27T19:23:43.621Z,5.75
2022-12-27T19:26:18.940Z,5.79
2022-12-27T19:29:04.845Z,5.80
2022-12-27T19:31:45.113Z,5.84
2022-12-27T19:34:21.493Z,5.98
2022-12-27T19:36:55.620Z,6.01
2022-12-27T19:39:37.126Z,5.94
2022-12-27T19:42:15.587Z,6.07
2022-12-27T19:44:48.637Z,6.14
2022-12-27T19:47:21.412Z,6.11
2022-12-27T19:49:54.284Z,6.03
2022-12-27T19:52:28.460Z,6.05
2022-12-27T19:55:09.825Z,6.07
2022-12-27T19:57:44.488Z,6.05
2022-12-27T20:00:23.598Z,5.99
2022-12-27T20:02:56.461Z,5.93
2022-12-27T20:06:12.948Z,5.90
2022-12-27T20:08:38.744Z,5.81
2022-12-27T20:11:19.668Z,5.56
2022-12-27T20:13:53.288Z,5.49
2022-12-27T20:16:26.740Z,5.51
2022-12-27T20:18:59.583Z,5.54
2022-12-27T20:21:32.252Z,5.48
2022-12-27T20:24:05.482Z,5.57
2022-12-27T20:26:38.194Z,5.45
2022-12-27T20:29:11.787Z,5.45
2022-12-27T20:31:46.582Z,5.34
2022-12-27T20:34:20.265Z,5.24
2022-12-27T20:36:55.645Z,5.29
2022-12-27T20:39:29.416Z,5.31
2022-12-27T20:42:02.842Z,5.37
2022-12-27T20:44:35.700Z,5.28
2022-12-27T20:47:08.890Z,5.12
2022-12-27T20:49:43.127Z,5.26
2022-12-27T20:52:16.105Z,5.11
2022-12-27T20:54:49.548Z,5.21
2022-12-27T20:57:22.275Z,5.17
2022-12-27T20:59:55.241Z,5.23
2022-12-27T21:02:27.931Z,5.24
2022-12-27T21:05:00.716Z,5.22
2022-12-27T21:07:33.539Z,5.10
2022-12-27T21:12:57.033Z,5.17
2022-12-27T21:15:31.241Z,5.06
2022-12-27T21:18:04.496Z,5.10
2022-12-27T21:20:37.471Z,5.10
2022-12-27T21:23:09.815Z,5.09
2022-12-27T21:25:42.688Z,5.01
2022-12-27T21:28:15.477Z,4.95
2022-12-27T21:30:59.327Z,5.03
2022-12-27T21:33:32.766Z,5.01
2022-12-27T21:36:07.997Z,5.03
2022-12-27T21:38:41.068Z,4.86
2022-12-27T21:41:28.423Z,4.95
2022-12-27T21:44:01.441Z,4.93
2022-12-27T21:46:36.590Z,4.78
2022-12-27T21:49:12.857Z,4.98
2022-12-27T21:51:46.615Z,4.96
2022-12-27T21:54:39.268Z,4.97
2022-12-27T21:57:12.170Z,4.97
2022-12-27T21:59:45.272Z,4.86
2022-12-27T22:02:19.230Z,4.84
2022-12-27T22:04:52.359Z,4.83
2022-12-27T22:07:25.462Z,4.75
2022-12-27T22:09:59.274Z,4.63
2022-12-27T22:12:31.966Z,4.62
2022-12-27T22:15:04.861Z,4.62
2022-12-27T22:17:37.574Z,4.45
2022-12-27T22:20:10.597Z,4.43
2022-12-27T22:22:43.663Z,4.31
2022-12-27T22:25:16.172Z,4.25
2022-12-27T22:27:49.066Z,4.19
2022-12-27T22:30:22.181Z,4.20
2022-12-27T22:32:56.319Z,4.03
2022-12-27T22:35:29.372Z,4.11
2022-12-27T22:38:02.527Z,4.16
2022-12-27T22:40:45.834Z,4.06
2022-12-27T22:43:21.089Z,4.20
2022-12-27T22:45:54.137Z,4.20
2022-12-27T22:48:26.972Z,4.27
2022-12-27T22:50:59.861Z,4.28
2022-12-27T22:53:33.249Z,4.21
2022-12-27T22:56:06.113Z,4.22
2022-12-27T22:58:39.336Z,4.16
2022-12-27T23:01:22.960Z,4.07
2022-12-27T23:03:57.074Z,4.05
2022-12-27T23:06:31.246Z,3.97
2022-12-27T23:09:08.505Z,3.99
2022-12-27T23:11:46.377Z,3.96
2022-12-27T23:14:19.714Z,3.92
2022-12-27T23:16:52.866Z,3.86
2022-12-27T23:19:26.395Z,3.78
2022-12-27T23:22:00.017Z,3.73
2022-12-27T23:24:33.187Z,3.68
2022-12-27T23:27:05.851Z,3.63
2022-12-27T23:29:38.404Z,3.58
2022-12-27T23:32:11.095Z,3.52
2022-12-27T23:34:43.603Z,3.57
2022-12-27T23:37:16.313Z,3.52
2022-12-27T23:39:49.017Z,3.48
2022-12-27T23:42:21.506Z,3.49
2022-12-27T23:44:54.269Z,3.49
2022-12-27T23:47:27.032Z,3.50
2022-12-27T23:49:59.791Z,3.52
2022-12-27T23:52:32.306Z,3.48
2022-12-27T23:55:05.390Z,3.48
2022-12-27T23:57:37.828Z,3.53
